Time;durP1;ratioP1;P1;durP2;ratioP2;P2;SDS_P1;SDS_P2;PMS_P1;PMS_P2;Temp;Humidity;BMP_temperature;BMP_pressure;BME280_temperature;BME280_humidity;BME280_pressure;Samples;Min_cycle;Max_cycle;Signal;HPM_P1;HPM_P2
2024/04/11 00:00:54;;;;;;;1.40;0.80;;;;;;;22.36;28.43;101956.44;4901191;26;20648;-48
2024/04/11 00:03:05;;;;;;;1.05;0.80;;;;;;;22.36;28.29;101963.00;4897853;26;20520;-51
2024/04/11 00:05:15;;;;;;;1.00;0.80;;;;;;;22.36;28.15;101962.19;4898502;26;20019;-48
2024/04/11 00:07:26;;;;;;;0.75;0.75;;;;;;;22.36;28.19;101954.38;4895309;25;20063;-48
2024/04/11 00:09:37;;;;;;;1.15;0.90;;;;;;;22.36;28.38;101953.56;4899523;26;20014;-48
2024/04/11 00:11:47;;;;;;;0.80;0.80;;;;;;;22.36;28.25;101947.81;4895985;25;20018;-50
2024/04/11 00:13:59;;;;;;;1.20;0.85;;;;;;;22.35;28.31;101957.59;4897765;25;20015;-49
2024/04/11 00:16:09;;;;;;;0.80;0.80;;;;;;;22.35;28.14;101951.84;4900639;26;20011;-48
2024/04/11 00:18:22;;;;;;;1.05;0.80;;;;;;;22.35;28.20;101954.72;4897685;26;20014;-50
2024/04/11 00:20:32;;;;;;;1.02;0.80;;;;;;;22.35;28.29;101951.84;4895057;26;20025;-49
2024/04/11 00:22:46;;;;;;;1.23;0.75;;;;;;;22.35;28.10;101946.09;4898139;25;20051;-50
2024/04/11 00:24:56;;;;;;;1.58;0.70;;;;;;;22.34;28.39;101944.41;4900067;25;20003;-49
2024/04/11 00:27:07;;;;;;;1.40;0.85;;;;;;;22.34;28.18;101951.03;4900207;26;20079;-50
2024/04/11 00:29:18;;;;;;;1.08;0.80;;;;;;;22.34;28.02;101944.41;4903093;26;20006;-48
2024/04/11 00:31:28;;;;;;;1.77;0.80;;;;;;;22.33;27.98;101948.47;4893906;25;20087;-49
2024/04/11 00:33:54;;;;;;;0.88;0.70;;;;;;;22.33;28.30;101949.31;4896809;25;20010;-52
2024/04/11 00:36:05;;;;;;;1.40;0.60;;;;;;;22.33;28.12;101946.44;4896788;26;20082;-51
2024/04/11 00:38:23;;;;;;;0.80;0.65;;;;;;;22.32;27.84;101944.78;4896685;26;20021;-49
2024/04/11 00:40:33;;;;;;;1.48;0.82;;;;;;;22.32;28.03;101946.78;4900965;26;20058;-50
2024/04/11 00:42:44;;;;;;;2.00;0.85;;;;;;;22.32;27.91;101947.66;4898417;26;20014;-50
2024/04/11 00:44:54;;;;;;;1.85;0.65;;;;;;;22.30;27.63;101940.53;4898543;25;20084;-49
2024/04/11 00:47:09;;;;;;;0.75;0.68;;;;;;;22.30;27.98;101944.25;4897013;26;20007;-49
2024/04/11 00:49:20;;;;;;;1.05;0.70;;;;;;;22.31;28.02;101953.75;4897112;26;20007;-49
2024/04/11 00:51:31;;;;;;;0.90;0.70;;;;;;;22.30;27.55;101949.16;4897126;26;20007;-49
2024/04/11 00:53:41;;;;;;;1.20;0.80;;;;;;;22.29;27.79;101954.09;4897851;25;20017;-48
2024/04/11 00:55:51;;;;;;;2.05;0.70;;;;;;;22.30;27.97;101952.03;4896671;26;20042;-51
2024/04/11 00:58:02;;;;;;;0.93;0.80;;;;;;;22.31;27.67;101950.88;4895968;25;20463;-48
2024/04/11 01:00:13;;;;;;;1.33;0.80;;;;;;;22.30;27.92;101960.66;4894461;26;20011;-48
2024/04/11 01:02:23;;;;;;;0.75;0.60;;;;;;;22.30;27.66;101966.41;4898179;26;20140;-48
2024/04/11 01:04:34;;;;;;;1.13;0.85;;;;;;;22.28;27.89;101961.00;4896416;26;20015;-48
2024/04/11 01:07:08;;;;;;;1.50;0.82;;;;;;;22.29;27.95;101967.63;4898502;26;20022;-50
2024/04/11 01:09:21;;;;;;;1.60;0.82;;;;;;;22.28;27.88;101958.13;4897853;26;20015;-49
2024/04/11 01:11:31;;;;;;;1.67;0.95;;;;;;;22.28;27.70;101952.38;4899166;26;20010;-50
2024/04/11 01:13:44;;;;;;;0.77;0.70;;;;;;;22.28;27.84;101951.56;4898852;26;20043;-50
2024/04/11 01:15:57;;;;;;;1.40;0.60;;;;;;;22.28;27.86;101954.44;4899581;26;20630;-48
2024/04/11 01:18:07;;;;;;;1.10;0.60;;;;;;;22.28;27.60;101954.44;4900399;26;20007;-50
2024/04/11 01:20:18;;;;;;;1.85;0.68;;;;;;;22.26;27.69;101953.94;4900787;25;20007;-48
2024/04/11 01:22:28;;;;;;;0.80;0.73;;;;;;;22.27;27.72;101958.50;4897889;25;20010;-48
2024/04/11 01:24:42;;;;;;;1.05;0.70;;;;;;;22.26;27.74;101951.91;4900754;26;20102;-48
2024/04/11 01:26:54;;;;;;;1.40;0.70;;;;;;;22.26;27.63;101960.53;4899701;25;20021;-48
2024/04/11 01:29:07;;;;;;;1.13;0.50;;;;;;;22.26;27.80;101951.06;4899586;25;21004;-49
2024/04/11 01:31:18;;;;;;;1.25;0.70;;;;;;;22.26;27.90;101948.19;4906138;25;20010;-49
2024/04/11 01:33:29;;;;;;;1.48;0.65;;;;;;;22.26;27.77;101959.69;4904127;26;20366;-49
2024/04/11 01:35:40;;;;;;;1.02;0.60;;;;;;;22.25;27.88;101955.13;4901577;26;20006;-49
2024/04/11 01:37:51;;;;;;;1.35;0.77;;;;;;;22.25;27.84;101955.97;4899963;26;20092;-49
2024/04/11 01:40:04;;;;;;;1.10;0.70;;;;;;;22.23;27.76;101954.63;4901679;26;20528;-48
2024/04/11 01:42:18;;;;;;;1.42;0.70;;;;;;;22.23;28.18;101953.44;4900384;26;20007;-49
2024/04/11 01:44:30;;;;;;;0.60;0.60;;;;;;;22.25;27.86;101952.25;4899462;26;20007;-49
2024/04/11 01:46:42;;;;;;;1.20;0.57;;;;;;;22.23;27.83;101953.44;4900552;26;20019;-48
2024/04/11 01:48:53;;;;;;;1.13;0.80;;;;;;;22.23;27.87;101957.50;4889258;26;20004;-49
2024/04/11 01:51:03;;;;;;;0.80;0.70;;;;;;;22.22;27.78;101962.41;4905048;25;20002;-49
2024/04/11 01:53:14;;;;;;;1.05;0.80;;;;;;;22.22;27.65;101962.41;4897993;25;20428;-50
2024/04/11 01:55:25;;;;;;;1.02;0.50;;;;;;;22.22;27.92;101965.28;4900809;26;20055;-48
2024/04/11 01:57:37;;;;;;;0.60;0.60;;;;;;;22.21;27.62;101964.44;4902404;26;20440;-49
2024/04/11 01:59:47;;;;;;;1.33;0.73;;;;;;;22.21;27.88;101957.84;4902527;26;20066;-48
2024/04/11 02:01:57;;;;;;;1.30;0.77;;;;;;;22.21;27.83;101961.56;4900627;26;21350;-48
2024/04/11 02:04:09;;;;;;;0.77;0.60;;;;;;;22.20;27.73;101954.13;4899598;25;20007;-51
2024/04/11 02:06:20;;;;;;;0.75;0.60;;;;;;;22.20;27.74;101956.16;4899045;26;20011;-48
2024/04/11 02:08:30;;;;;;;1.33;0.70;;;;;;;22.19;27.90;101961.06;4901451;26;20341;-50
2024/04/11 02:10:40;;;;;;;0.98;0.63;;;;;;;22.20;27.49;101965.63;4900758;25;21093;-49
2024/04/11 02:12:51;;;;;;;0.73;0.68;;;;;;;22.20;27.70;101961.91;4903628;26;20617;-49
2024/04/11 02:15:01;;;;;;;0.70;0.70;;;;;;;22.19;27.58;101969.69;4897996;26;23402;-49
2024/04/11 02:17:11;;;;;;;0.70;0.60;;;;;;;22.19;27.95;101978.34;4900936;25;20065;-50
2024/04/11 02:19:22;;;;;;;0.77;0.70;;;;;;;22.19;27.79;101978.34;4899599;26;20006;-50
2024/04/11 02:21:34;;;;;;;0.65;0.60;;;;;;;22.19;27.86;101975.47;4906116;26;20071;-49
2024/04/11 02:23:44;;;;;;;0.70;0.60;;;;;;;22.19;27.96;101978.34;4901877;26;20010;-49
2024/04/11 02:25:56;;;;;;;0.82;0.80;;;;;;;22.17;27.74;101974.09;4899836;26;20017;-48
2024/04/11 02:28:07;;;;;;;0.90;0.80;;;;;;;22.18;28.01;101981.56;4901602;26;20058;-48
2024/04/11 02:30:17;;;;;;;0.95;0.60;;;;;;;22.18;27.66;101973.75;4899744;25;20107;-48
2024/04/11 02:32:28;;;;;;;0.50;0.50;;;;;;;22.17;28.12;101974.94;4903970;26;20550;-49
2024/04/11 02:34:38;;;;;;;0.73;0.68;;;;;;;22.17;28.10;101968.34;4899548;26;20008;-49
2024/04/11 02:36:49;;;;;;;0.57;0.57;;;;;;;22.17;27.97;101972.06;4901676;26;20536;-50
2024/04/11 02:39:00;;;;;;;1.00;0.68;;;;;;;22.17;28.31;101980.69;4900091;25;20004;-49
2024/04/11 02:41:11;;;;;;;1.35;0.65;;;;;;;22.17;28.12;101985.59;4897450;26;20612;-48
2024/04/11 02:43:21;;;;;;;1.13;0.70;;;;;;;22.16;28.11;101984.78;4898984;26;20003;-49
2024/04/11 02:45:31;;;;;;;0.70;0.60;;;;;;;22.16;28.18;101990.53;4898774;26;20067;-50
2024/04/11 02:47:42;;;;;;;0.68;0.60;;;;;;;22.15;28.16;101985.94;4902395;25;20002;-52
2024/04/11 02:49:52;;;;;;;0.68;0.60;;;;;;;22.15;28.20;101985.13;4901242;25;20416;-48
2024/04/11 02:52:04;;;;;;;0.82;0.80;;;;;;;22.15;28.12;101980.19;4904150;26;20382;-48
2024/04/11 02:54:14;;;;;;;0.98;0.75;;;;;;;22.15;28.33;101988.81;4904110;26;20030;-48
2024/04/11 02:56:26;;;;;;;0.50;0.50;;;;;;;22.13;27.92;101981.75;4899222;26;21381;-52
2024/04/11 02:58:37;;;;;;;0.80;0.68;;;;;;;22.14;27.97;101981.41;4898536;26;20011;-51
2024/04/11 03:00:52;;;;;;;0.68;0.50;;;;;;;22.13;27.85;101984.63;4896972;25;20015;-48
2024/04/11 03:03:02;;;;;;;0.90;0.63;;;;;;;22.13;28.08;101985.47;4899096;25;20008;-49
2024/04/11 03:05:13;;;;;;;0.85;0.60;;;;;;;22.13;28.08;101982.59;4900863;26;20030;-48
2024/04/11 03:07:23;;;;;;;0.60;0.60;;;;;;;22.14;28.38;101986.28;4902072;26;20002;-49
2024/04/11 03:09:33;;;;;;;0.75;0.50;;;;;;;22.12;28.30;101986.63;4898444;25;20019;-50
2024/04/11 03:11:44;;;;;;;0.98;0.70;;;;;;;22.11;28.45;101976.34;4900301;25;20014;-50
2024/04/11 03:13:58;;;;;;;0.80;0.60;;;;;;;22.12;28.53;101972.25;4901053;26;20020;-48
2024/04/11 03:16:14;;;;;;;0.80;0.57;;;;;;;22.11;28.51;101970.59;4899808;26;20592;-51
2024/04/11 03:18:24;;;;;;;0.93;0.60;;;;;;;22.11;28.47;101970.59;4901394;26;20636;-49
2024/04/11 03:20:35;;;;;;;0.50;0.50;;;;;;;22.11;28.18;101975.47;4898309;26;20015;-48
2024/04/11 03:22:45;;;;;;;1.25;0.80;;;;;;;22.11;28.68;101979.22;4899992;26;20384;-49
2024/04/11 03:24:56;;;;;;;0.65;0.60;;;;;;;22.10;28.35;101973.81;4898425;26;24190;-51
2024/04/11 03:27:07;;;;;;;0.80;0.70;;;;;;;22.10;28.29;101963.13;4900242;26;20007;-51
2024/04/11 03:29:17;;;;;;;0.80;0.70;;;;;;;22.11;28.26;101969.72;4903277;26;20018;-49
2024/04/11 03:31:28;;;;;;;1.00;0.70;;;;;;;22.10;28.19;101968.06;4896161;26;20007;-48
2024/04/11 03:33:39;;;;;;;0.90;0.60;;;;;;;22.09;28.29;101972.94;4899643;26;20006;-53
2024/04/11 03:36:00;;;;;;;0.68;0.47;;;;;;;22.07;27.97;101963.81;4898301;26;20014;-51
2024/04/11 03:38:10;;;;;;;1.92;0.60;;;;;;;22.10;28.22;101970.94;4897868;26;20016;-49
2024/04/11 03:40:21;;;;;;;0.80;0.60;;;;;;;22.07;28.21;101966.69;4899474;26;20629;-51
2024/04/11 03:42:31;;;;;;;0.82;0.70;;;;;;;22.08;28.22;101973.31;4897593;25;20021;-48
2024/04/11 03:44:42;;;;;;;1.27;0.65;;;;;;;22.07;28.43;101963.81;4900652;26;20104;-48
2024/04/11 03:46:52;;;;;;;1.65;0.52;;;;;;;22.06;28.25;101965.03;4901713;25;20003;-51
2024/04/11 03:49:09;;;;;;;0.73;0.50;;;;;;;22.07;28.09;101968.75;4899032;26;20729;-50
2024/04/11 03:51:22;;;;;;;0.77;0.60;;;;;;;22.06;27.98;101967.91;4896972;25;20015;-49
2024/04/11 03:53:32;;;;;;;0.80;0.70;;;;;;;22.06;28.35;101962.16;4927386;25;21008;-49
2024/04/11 03:55:44;;;;;;;0.90;0.60;;;;;;;22.05;28.16;101969.09;4898329;25;20101;-53
2024/04/11 03:57:54;;;;;;;0.82;0.50;;;;;;;22.05;28.22;101966.22;4899836;26;20022;-52
2024/04/11 04:00:07;;;;;;;0.85;0.60;;;;;;;22.05;28.05;101969.09;4900531;25;20018;-53
2024/04/11 04:02:22;;;;;;;0.90;0.55;;;;;;;22.04;27.83;101964.50;4899164;26;20007;-53
2024/04/11 04:04:32;;;;;;;0.63;0.43;;;;;;;22.04;27.85;101967.38;4896581;25;20007;-52
2024/04/11 04:06:43;;;;;;;1.20;0.60;;;;;;;22.03;28.06;101959.97;4896318;25;20430;-52
2024/04/11 04:08:54;;;;;;;1.70;0.60;;;;;;;22.03;28.10;101956.22;4896846;26;20467;-52
2024/04/11 04:11:05;;;;;;;0.63;0.50;;;;;;;22.03;27.92;101954.22;4896401;26;20078;-53
2024/04/11 04:13:16;;;;;;;0.47;0.43;;;;;;;22.03;27.65;101957.09;4901032;26;20543;-50
2024/04/11 04:15:27;;;;;;;1.15;0.60;;;;;;;22.02;27.88;101952.50;4898978;26;20011;-51
2024/04/11 04:17:38;;;;;;;1.00;0.50;;;;;;;22.03;27.93;101947.59;4897435;26;20455;-53
2024/04/11 04:19:49;;;;;;;0.70;0.63;;;;;;;22.03;27.75;101944.72;4900036;25;20003;-51
2024/04/11 04:21:59;;;;;;;0.85;0.50;;;;;;;22.02;28.17;101949.63;4897289;26;20014;-52
2024/04/11 04:24:10;;;;;;;0.80;0.50;;;;;;;22.02;28.04;101951.69;4899588;26;20006;-51
2024/04/11 04:26:30;;;;;;;1.17;0.65;;;;;;;22.01;27.69;101952.84;4898239;26;20037;-49
2024/04/11 04:28:41;;;;;;;2.15;0.77;;;;;;;22.00;29.84;101952.03;4901379;26;21005;-49
2024/04/11 04:30:51;;;;;;;0.93;0.90;;;;;;;21.99;29.46;101950.31;4898957;26;20006;-50
2024/04/11 04:33:04;;;;;;;1.25;0.60;;;;;;;21.99;29.20;101955.25;4900741;25;20007;-49
2024/04/11 04:35:15;;;;;;;1.13;0.70;;;;;;;21.97;29.44;101946.97;4898931;26;20737;-50
2024/04/11 04:37:25;;;;;;;0.95;0.70;;;;;;;21.97;29.12;101946.97;4898116;26;20011;-49
2024/04/11 04:39:41;;;;;;;0.82;0.60;;;;;;;21.96;29.06;101956.75;4897977;26;20006;-51
2024/04/11 04:41:52;;;;;;;0.73;0.60;;;;;;;21.98;28.44;101953.53;4898307;26;20022;-48
2024/04/11 04:44:02;;;;;;;1.23;0.65;;;;;;;21.96;28.91;101945.25;4900998;26;20021;-51
2024/04/11 04:46:15;;;;;;;0.77;0.60;;;;;;;21.95;28.27;101942.72;4901966;25;20593;-49
2024/04/11 04:48:27;;;;;;;0.82;0.52;;;;;;;21.95;28.54;101939.84;4892392;26;20617;-49
2024/04/11 04:50:37;;;;;;;0.40;0.40;;;;;;;21.95;28.99;101937.84;4902177;25;20125;-51
2024/04/11 04:52:48;;;;;;;0.77;0.60;;;;;;;21.95;28.53;101932.09;4886229;26;20007;-49
2024/04/11 04:54:59;;;;;;;0.75;0.55;;;;;;;21.95;28.79;101928.34;4908918;26;20021;-51
2024/04/11 04:57:11;;;;;;;1.48;0.50;;;;;;;21.95;28.73;101934.97;4900590;26;20007;-49
2024/04/11 04:59:22;;;;;;;1.40;0.60;;;;;;;21.94;28.66;101927.53;4902509;26;20006;-48
2024/04/11 05:01:33;;;;;;;1.73;0.65;;;;;;;21.93;29.40;101928.69;4902839;25;22524;-49
2024/04/11 05:03:45;;;;;;;0.60;0.60;;;;;;;21.93;28.52;101931.56;4906381;26;20007;-51
2024/04/11 05:05:56;;;;;;;0.82;0.65;;;;;;;21.94;28.89;101920.94;4902075;26;20014;-49
2024/04/11 05:08:07;;;;;;;0.82;0.60;;;;;;;21.93;29.13;101917.22;4899798;25;20643;-49
2024/04/11 05:10:20;;;;;;;1.15;0.70;;;;;;;21.93;29.56;101911.47;4900686;26;20064;-49
2024/04/11 05:12:42;;;;;;;1.00;0.60;;;;;;;21.92;28.95;101915.53;4899322;26;20018;-49
2024/04/11 05:14:53;;;;;;;0.52;0.50;;;;;;;21.92;29.39;101912.66;4903235;26;20003;-49
2024/04/11 05:17:03;;;;;;;0.50;0.50;;;;;;;21.92;30.19;101914.69;4901199;25;20011;-50
2024/04/11 05:19:15;;;;;;;0.50;0.50;;;;;;;21.93;29.25;101916.34;4898855;26;20017;-49
2024/04/11 05:21:26;;;;;;;0.57;0.43;;;;;;;21.93;28.80;101916.34;4900495;25;20007;-49
2024/04/11 05:23:38;;;;;;;1.65;0.70;;;;;;;21.90;29.25;101912.16;4901548;26;20405;-49
2024/04/11 05:25:49;;;;;;;0.85;0.50;;;;;;;21.91;29.32;101915.88;4898790;25;20007;-52
2024/04/11 05:27:59;;;;;;;1.58;0.73;;;;;;;21.88;29.13;101911.66;4899769;26;21951;-53
2024/04/11 05:30:13;;;;;;;0.50;0.40;;;;;;;21.91;29.59;101927.38;4900478;26;20010;-49
2024/04/11 05:32:24;;;;;;;0.80;0.57;;;;;;;21.90;29.16;101917.91;4898997;26;20011;-50
2024/04/11 05:34:34;;;;;;;0.95;0.50;;;;;;;21.90;29.63;101922.78;4900085;26;20022;-50
2024/04/11 05:36:44;;;;;;;1.30;0.60;;;;;;;21.90;29.65;101923.66;4898682;25;20081;-49
2024/04/11 05:38:55;;;;;;;0.50;0.50;;;;;;;21.90;29.86;101922.78;4899616;26;19999;-51
2024/04/11 05:41:09;;;;;;;1.17;0.57;;;;;;;21.90;30.19;101932.28;4900181;26;20010;-49
2024/04/11 05:43:21;;;;;;;0.50;0.50;;;;;;;21.89;30.13;101930.59;4899692;26;20003;-50
2024/04/11 05:45:33;;;;;;;0.60;0.50;;;;;;;21.89;29.83;101932.63;4899312;26;20006;-52
2024/04/11 05:47:47;;;;;;;1.23;0.50;;;;;;;21.89;30.75;101933.47;4901180;26;20008;-51
2024/04/11 05:49:57;;;;;;;1.10;0.45;;;;;;;21.89;30.14;101927.72;4903217;26;20007;-49
2024/04/11 05:52:08;;;;;;;1.10;0.43;;;;;;;21.89;29.65;101936.34;4901359;25;20006;-51
2024/04/11 05:54:18;;;;;;;0.80;0.50;;;;;;;21.88;29.53;101931.75;4902245;26;20061;-49
2024/04/11 05:56:29;;;;;;;0.50;0.50;;;;;;;21.86;29.99;101928.41;4898292;26;20002;-51
2024/04/11 05:58:40;;;;;;;1.83;0.52;;;;;;;21.87;29.92;101932.97;4901125;25;25014;-49
2024/04/11 06:00:50;;;;;;;0.88;0.60;;;;;;;21.88;29.60;101931.75;4898778;26;20002;-49
2024/04/11 06:03:08;;;;;;;0.60;0.40;;;;;;;21.86;28.60;101937.03;4895414;26;21468;-49
2024/04/11 06:05:20;;;;;;;1.10;0.50;;;;;;;21.87;29.01;101935.84;4896807;26;20017;-50
2024/04/11 06:07:30;;;;;;;1.48;0.43;;;;;;;21.87;29.26;101940.72;4898864;26;20014;-48
2024/04/11 06:09:41;;;;;;;0.85;0.60;;;;;;;21.86;29.05;101948.53;4902201;26;20003;-51
2024/04/11 06:11:53;;;;;;;1.25;0.50;;;;;;;21.87;29.46;101953.09;4903027;26;20057;-49
2024/04/11 06:14:05;;;;;;;1.35;0.52;;;;;;;21.86;29.10;101951.41;4898804;26;20011;-48
2024/04/11 06:16:16;;;;;;;1.58;0.68;;;;;;;21.86;28.98;101945.66;4897612;25;21557;-49
2024/04/11 06:18:28;;;;;;;0.60;0.40;;;;;;;21.86;28.71;101945.66;4897827;26;20022;-50
2024/04/11 06:20:38;;;;;;;0.52;0.50;;;;;;;21.86;29.14;101956.31;4897751;26;20007;-48
2024/04/11 06:22:52;;;;;;;0.88;0.47;;;;;;;21.85;29.34;101949.69;4901611;26;21961;-49
2024/04/11 06:25:02;;;;;;;1.13;0.60;;;;;;;21.85;29.17;101958.31;4898707;25;20018;-51
2024/04/11 06:27:13;;;;;;;1.90;0.50;;;;;;;21.86;29.48;101953.44;4900682;26;20019;-49
2024/04/11 06:29:24;;;;;;;1.02;0.60;;;;;;;21.85;29.33;101961.19;4903188;26;20394;-48
2024/04/11 06:31:34;;;;;;;1.10;0.50;;;;;;;21.84;29.33;101961.53;4898601;26;20007;-51
2024/04/11 06:33:44;;;;;;;1.25;0.50;;;;;;;21.85;29.16;101963.25;4900001;26;20370;-48
2024/04/11 06:35:55;;;;;;;0.95;0.60;;;;;;;21.85;28.71;101969.00;4899243;25;20018;-48
2024/04/11 06:38:07;;;;;;;0.93;0.50;;;;;;;21.85;29.31;101966.13;4898174;26;20022;-48
2024/04/11 06:40:17;;;;;;;0.82;0.50;;;;;;;21.84;29.99;101971.03;4897900;26;20747;-51
2024/04/11 06:42:28;;;;;;;0.50;0.40;;;;;;;21.84;29.32;101982.53;4900887;25;20052;-48
2024/04/11 06:44:45;;;;;;;0.60;0.45;;;;;;;21.83;29.61;101983.72;4899305;26;20029;-49
2024/04/11 06:46:55;;;;;;;1.17;0.45;;;;;;;21.83;28.95;101983.72;4898463;26;20022;-50
2024/04/11 06:49:06;;;;;;;1.35;0.40;;;;;;;21.85;29.14;101983.38;4900937;26;20018;-50
2024/04/11 06:51:19;;;;;;;1.40;0.70;;;;;;;21.84;29.69;101984.53;4898067;26;20096;-49
2024/04/11 06:53:30;;;;;;;0.65;0.50;;;;;;;21.84;29.12;101990.28;4900500;26;20015;-49
2024/04/11 06:55:45;;;;;;;0.90;0.50;;;;;;;21.84;29.03;101988.28;4897832;26;20104;-48
2024/04/11 06:57:56;;;;;;;2.45;0.60;;;;;;;21.84;29.35;101987.41;4901603;26;20003;-50
2024/04/11 07:00:21;;;;;;;0.40;0.30;;;;;;;21.84;29.65;101987.41;4898802;26;20007;-52
2024/04/11 07:02:32;;;;;;;0.75;0.50;;;;;;;21.83;30.00;101974.25;4899943;26;20011;-50
2024/04/11 07:04:43;;;;;;;1.20;0.60;;;;;;;21.83;30.02;101971.38;4899342;26;20010;-49
2024/04/11 07:06:57;;;;;;;0.40;0.40;;;;;;;21.82;29.75;101982.00;4899563;26;20216;-48
2024/04/11 07:09:11;;;;;;;0.93;0.50;;;;;;;21.82;29.95;101969.66;4899963;26;20005;-49
2024/04/11 07:11:32;;;;;;;0.73;0.55;;;;;;;21.82;29.84;101984.03;4898191;26;20018;-49
2024/04/11 07:13:54;;;;;;;0.98;0.45;;;;;;;21.83;29.53;101985.75;4898951;26;20010;-51
2024/04/11 07:16:07;;;;;;;0.65;0.50;;;;;;;21.82;29.57;101979.13;4901847;25;20905;-51
2024/04/11 07:18:18;;;;;;;1.50;0.50;;;;;;;21.82;29.81;101979.13;4900053;26;20053;-48
2024/04/11 07:20:35;;;;;;;1.17;0.47;;;;;;;21.82;30.56;101990.63;4901720;26;20010;-49
2024/04/11 07:22:45;;;;;;;0.90;0.60;;;;;;;21.82;29.89;101989.78;4898527;25;20003;-50
2024/04/11 07:24:56;;;;;;;1.45;0.60;;;;;;;21.81;29.92;101994.69;4903738;26;20396;-49
2024/04/11 07:27:11;;;;;;;0.80;0.50;;;;;;;21.81;29.95;101986.09;4899497;26;20351;-48
2024/04/11 07:29:24;;;;;;;0.85;0.60;;;;;;;21.81;30.42;101991.81;4898538;26;20010;-49
2024/04/11 07:31:36;;;;;;;0.93;0.50;;;;;;;21.81;30.10;102000.44;4896645;26;20917;-50
2024/04/11 07:33:48;;;;;;;0.85;0.50;;;;;;;21.81;30.00;101993.84;4902551;26;20053;-50
2024/04/11 07:35:59;;;;;;;2.13;0.70;;;;;;;21.80;30.17;102004.50;4898905;26;20019;-53
2024/04/11 07:38:10;;;;;;;1.38;0.77;;;;;;;21.78;30.44;101998.25;4914921;26;20633;-50
2024/04/11 07:40:32;;;;;;;1.20;0.50;;;;;;;21.81;29.88;102002.47;4897312;25;20019;-50
2024/04/11 07:42:54;;;;;;;2.08;0.50;;;;;;;21.80;30.24;101998.75;4897990;26;21066;-48
2024/04/11 07:45:05;;;;;;;1.30;0.60;;;;;;;21.80;30.54;102004.50;4898783;26;20007;-50
2024/04/11 07:47:16;;;;;;;1.77;0.60;;;;;;;21.80;30.12;102010.25;4904672;26;20007;-48
2024/04/11 07:49:30;;;;;;;1.70;0.50;;;;;;;21.79;30.40;102002.81;4900180;26;20011;-51
2024/04/11 07:51:42;;;;;;;1.42;0.50;;;;;;;21.79;30.37;102008.56;4895984;25;20010;-49
2024/04/11 07:53:53;;;;;;;1.75;0.60;;;;;;;21.79;30.80;102008.56;4898752;26;20042;-51
2024/04/11 07:56:03;;;;;;;1.35;0.60;;;;;;;21.77;30.54;102005.19;4898679;26;20019;-49
2024/04/11 07:58:18;;;;;;;0.90;0.70;;;;;;;21.79;30.41;102013.47;4898100;26;20004;-50
2024/04/11 08:00:28;;;;;;;1.75;0.50;;;;;;;21.79;30.48;102013.47;4898745;25;20022;-50
2024/04/11 08:02:39;;;;;;;1.02;0.50;;;;;;;21.79;30.58;102025.81;4897390;26;20023;-53
2024/04/11 08:04:49;;;;;;;1.30;0.68;;;;;;;21.78;30.86;102018.38;4899087;26;20076;-49
2024/04/11 08:06:59;;;;;;;1.48;0.60;;;;;;;21.78;30.76;102024.13;4898324;26;20015;-50
2024/04/11 08:09:12;;;;;;;1.42;0.70;;;;;;;21.77;30.75;102022.44;4898921;25;20083;-52
2024/04/11 08:11:30;;;;;;;2.03;0.90;;;;;;;21.78;31.29;102035.63;4896523;26;20002;-49
2024/04/11 08:13:43;;;;;;;1.65;0.80;;;;;;;21.79;31.14;102031.56;4901401;26;20011;-48
2024/04/11 08:15:53;;;;;;;1.40;0.80;;;;;;;21.79;30.94;102043.06;4898966;25;20011;-50
2024/04/11 08:18:04;;;;;;;0.68;0.50;;;;;;;21.78;30.98;102031.91;4903364;26;20459;-49
2024/04/11 08:20:14;;;;;;;1.40;0.73;;;;;;;21.78;31.20;102038.50;4899312;26;20006;-48
2024/04/11 08:22:27;;;;;;;1.13;0.70;;;;;;;21.81;33.02;102036.97;4896732;26;20007;-48
2024/04/11 08:24:37;;;;;;;1.60;0.60;;;;;;;21.80;30.99;102043.91;4899047;26;20003;-50
2024/04/11 08:26:48;;;;;;;1.15;0.40;;;;;;;21.79;31.10;102048.81;4899585;25;20011;-49
2024/04/11 08:29:00;;;;;;;2.42;0.70;;;;;;;21.78;31.17;102047.13;4898909;25;20010;-49
2024/04/11 08:31:13;;;;;;;1.42;0.60;;;;;;;21.78;31.10;102046.28;4900919;25;20944;-50
2024/04/11 08:33:23;;;;;;;0.93;0.50;;;;;;;21.78;31.53;102044.25;4902444;26;20014;-52
2024/04/11 08:35:34;;;;;;;1.10;0.50;;;;;;;21.79;31.38;102053.69;4900986;25;20355;-49
2024/04/11 08:37:54;;;;;;;2.40;1.10;;;;;;;21.78;31.63;102058.63;4900676;25;20018;-49
2024/04/11 08:40:14;;;;;;;1.30;0.70;;;;;;;21.79;31.56;102053.69;4899540;26;20066;-49
2024/04/11 08:42:24;;;;;;;0.98;0.52;;;;;;;21.79;31.30;102059.44;4902460;26;20978;-48
2024/04/11 08:44:35;;;;;;;1.67;0.60;;;;;;;21.79;31.05;102057.44;4901627;26;20021;-48
2024/04/11 08:46:45;;;;;;;1.20;0.50;;;;;;;21.79;31.09;102060.31;4898776;26;20088;-49
2024/04/11 08:48:56;;;;;;;1.05;0.60;;;;;;;21.79;31.20;102066.03;4900499;26;20076;-50
2024/04/11 08:51:20;;;;;;;1.05;0.52;;;;;;;21.80;31.28;102064.84;4902550;26;20017;-48
2024/04/11 08:53:33;;;;;;;1.02;0.40;;;;;;;21.79;31.43;102068.91;4900885;26;20624;-49
2024/04/11 08:55:46;;;;;;;0.82;0.50;;;;;;;21.79;31.44;102071.78;4899648;26;20014;-50
2024/04/11 08:57:58;;;;;;;1.98;0.70;;;;;;;21.79;31.51;102066.03;4899840;26;20649;-49
2024/04/11 09:00:13;;;;;;;1.23;0.70;;;;;;;21.79;31.44;102066.03;4904083;25;20041;-48
2024/04/11 09:02:24;;;;;;;0.80;0.50;;;;;;;21.78;31.63;102070.13;4900603;26;20934;-48
2024/04/11 09:04:34;;;;;;;0.93;0.73;;;;;;;21.80;31.98;102066.91;4899752;26;20014;-48
2024/04/11 09:06:49;;;;;;;0.88;0.52;;;;;;;21.79;31.65;102071.78;4902764;25;20010;-50
2024/04/11 09:09:16;;;;;;;0.77;0.60;;;;;;;21.79;31.73;102071.78;4899637;26;20011;-48
2024/04/11 09:11:27;;;;;;;1.35;0.65;;;;;;;21.80;31.84;102078.41;4906910;26;20021;-49
2024/04/11 09:13:39;;;;;;;1.20;0.60;;;;;;;21.80;32.37;102075.53;4903513;26;20058;-50
2024/04/11 09:16:05;;;;;;;1.00;0.50;;;;;;;21.80;32.49;102075.53;4899924;26;20014;-49
2024/04/11 09:18:22;;;;;;;0.93;0.40;;;;;;;21.81;32.09;102075.19;4899893;26;20886;-50
2024/04/11 09:20:34;;;;;;;3.22;0.60;;;;;;;21.82;33.27;102078.88;4929375;25;20053;-50
2024/04/11 09:22:51;;;;;;;0.90;0.43;;;;;;;21.83;34.66;102071.97;4899413;26;20010;-51
2024/04/11 09:25:07;;;;;;;1.67;0.50;;;;;;;21.82;35.06;102073.13;4903170;26;20658;-49
2024/04/11 09:27:18;;;;;;;0.43;0.43;;;;;;;21.83;34.99;102078.56;4903061;26;20007;-49
2024/04/11 09:29:29;;;;;;;0.85;0.70;;;;;;;21.83;35.46;102071.97;4901481;26;20024;-49
2024/04/11 09:31:42;;;;;;;1.38;0.52;;;;;;;21.84;35.45;102073.66;4899205;26;20942;-48
2024/04/11 09:33:57;;;;;;;1.38;0.40;;;;;;;21.84;36.23;102062.16;4900877;26;20011;-49
2024/04/11 09:36:09;;;;;;;0.60;0.40;;;;;;;21.85;36.77;102076.19;4900025;26;20497;-49
2024/04/11 09:38:22;;;;;;;2.33;0.68;;;;;;;21.85;36.20;102079.06;4900494;26;20014;-51
2024/04/11 09:40:34;;;;;;;1.33;0.68;;;;;;;21.86;36.08;102079.91;4900783;26;20022;-49
2024/04/11 09:42:46;;;;;;;1.88;1.30;;;;;;;21.86;35.14;102077.88;4902454;26;20010;-49
2024/04/11 09:44:59;;;;;;;1.10;0.75;;;;;;;21.87;35.79;102073.81;4898991;26;20713;-49
2024/04/11 09:47:14;;;;;;;0.98;0.60;;;;;;;21.89;34.99;102080.06;4900530;26;20062;-49
2024/04/11 09:49:25;;;;;;;0.90;0.52;;;;;;;21.87;35.01;102078.72;4898732;25;20116;-50
2024/04/11 09:51:37;;;;;;;1.10;0.60;;;;;;;21.87;35.51;102085.31;4899663;25;20030;-48
2024/04/11 09:53:51;;;;;;;1.52;0.60;;;;;;;21.88;35.31;102080.41;4900983;26;20017;-50
2024/04/11 09:56:05;;;;;;;0.77;0.52;;;;;;;21.89;35.80;102080.06;4899886;26;20007;-48
2024/04/11 09:58:20;;;;;;;1.10;0.60;;;;;;;21.91;36.03;102082.59;4901006;26;20574;-48
2024/04/11 10:00:48;;;;;;;1.13;0.70;;;;;;;21.89;35.90;102071.44;4898619;26;20091;-49
2024/04/11 10:03:03;;;;;;;1.02;0.60;;;;;;;21.90;36.15;102078.88;4899963;25;20081;-50
2024/04/11 10:05:16;;;;;;;0.73;0.65;;;;;;;21.93;37.08;102077.34;4898186;26;20865;-49
2024/04/11 10:07:43;;;;;;;1.27;0.73;;;;;;;21.92;37.04;102079.41;4899655;26;20003;-53
2024/04/11 10:09:53;;;;;;;0.85;0.60;;;;;;;21.92;37.56;102076.53;4902138;26;20014;-53
2024/04/11 10:12:05;;;;;;;0.88;0.57;;;;;;;21.92;36.94;102082.25;4897923;25;20363;-49
2024/04/11 10:14:22;;;;;;;1.27;0.80;;;;;;;21.93;37.30;102078.19;4916177;26;20006;-52